Time;durP1;ratioP1;P1;durP2;ratioP2;P2;SDS_P1;SDS_P2;PMS_P1;PMS_P2;Temp;Humidity;BMP_temperature;BMP_pressure;BME280_temperature;BME280_humidity;BME280_pressure;Samples;Min_cycle;Max_cycle;Signal;HPM_P1;HPM_P2
2021/09/07 00:00:54;;;;;;;30.47;27.77;;;13.50;99.90;;;;;;5039031;28;20554;-71
2021/09/07 00:03:22;;;;;;;30.93;28.27;;;13.50;99.90;;;;;;5039380;28;20491;-71
2021/09/07 00:05:50;;;;;;;31.70;28.73;;;13.50;99.90;;;;;;5042479;28;20463;-71
2021/09/07 00:08:17;;;;;;;32.40;29.30;;;13.40;99.90;;;;;;5051901;28;20451;-72
2021/09/07 00:10:45;;;;;;;30.07;27.07;;;13.40;99.90;;;;;;5051130;28;20447;-70
2021/09/07 00:13:12;;;;;;;29.80;27.20;;;13.40;99.90;;;;;;5041558;28;20451;-72
2021/09/07 00:15:39;;;;;;;30.03;27.43;;;13.30;99.90;;;;;;5039461;28;20447;-71
2021/09/07 00:18:06;;;;;;;30.83;28.00;;;13.30;99.90;;;;;;5042962;28;20459;-70
2021/09/07 00:20:33;;;;;;;31.90;28.90;;;13.30;99.90;;;;;;5049795;28;20468;-70
2021/09/07 00:23:02;;;;;;;30.43;27.47;;;13.30;99.90;;;;;;5043294;28;20808;-70
2021/09/07 00:25:29;;;;;;;30.60;27.70;;;13.40;99.90;;;;;;5043126;28;20989;-70
2021/09/07 00:27:56;;;;;;;30.07;27.63;;;13.40;99.90;;;;;;5043908;28;20450;-70
2021/09/07 00:30:25;;;;;;;33.80;30.13;;;13.40;99.90;;;;;;5037526;28;20474;-71
2021/09/07 00:32:52;;;;;;;32.03;29.33;;;13.40;99.90;;;;;;5048996;28;20466;-71
2021/09/07 00:35:19;;;;;;;32.00;29.00;;;13.40;99.90;;;;;;5054951;28;20479;-70
2021/09/07 00:37:46;;;;;;;34.63;31.10;;;13.40;99.90;;;;;;5045985;28;20455;-71
2021/09/07 00:40:15;;;;;;;32.33;28.90;;;13.40;99.90;;;;;;5040820;28;20452;-70
2021/09/07 00:42:44;;;;;;;34.30;30.60;;;13.50;99.90;;;;;;5042604;28;20459;-71
2021/09/07 00:45:12;;;;;;;31.07;28.27;;;13.50;99.90;;;;;;5045486;28;20516;-70
2021/09/07 00:47:39;;;;;;;29.57;26.97;;;13.50;99.90;;;;;;5037550;28;20455;-71
2021/09/07 00:50:07;;;;;;;31.70;28.93;;;13.50;99.90;;;;;;5042034;28;20451;-70
2021/09/07 00:52:36;;;;;;;29.90;27.23;;;13.40;99.90;;;;;;5040697;28;20475;-71
2021/09/07 00:55:04;;;;;;;31.50;28.63;;;13.40;99.90;;;;;;5043112;28;20499;-69
2021/09/07 00:57:34;;;;;;;31.37;28.37;;;13.40;99.90;;;;;;5045296;28;20459;-70
2021/09/07 01:00:04;;;;;;;35.17;30.00;;;13.30;99.90;;;;;;5044769;28;20949;-70
2021/09/07 01:02:32;;;;;;;32.53;29.33;;;13.30;99.90;;;;;;5047449;28;20459;-70
2021/09/07 01:05:00;;;;;;;31.40;28.50;;;13.30;99.90;;;;;;5047730;28;20521;-71
2021/09/07 01:07:28;;;;;;;31.50;28.43;;;13.20;99.90;;;;;;5047642;28;20461;-70
2021/09/07 01:09:56;;;;;;;32.50;29.40;;;13.10;99.90;;;;;;5051449;28;20482;-71
2021/09/07 01:12:23;;;;;;;31.90;29.20;;;13.10;99.90;;;;;;5049785;28;20959;-70
2021/09/07 01:14:51;;;;;;;31.63;28.93;;;13.10;99.90;;;;;;5051421;28;20454;-70
2021/09/07 01:17:20;;;;;;;30.60;27.90;;;13.10;99.90;;;;;;5037141;28;20455;-71
2021/09/07 01:19:49;;;;;;;32.17;29.07;;;13.10;99.90;;;;;;5041271;28;20471;-70
2021/09/07 01:22:17;;;;;;;31.33;28.63;;;13.10;99.90;;;;;;5041909;28;20463;-70
2021/09/07 01:24:45;;;;;;;31.20;28.40;;;13.10;99.90;;;;;;5046225;28;20508;-71
2021/09/07 01:27:14;;;;;;;33.47;30.07;;;13.10;99.90;;;;;;5056629;28;20465;-70
2021/09/07 01:29:42;;;;;;;32.20;29.30;;;13.00;99.90;;;;;;5047582;28;20456;-71
2021/09/07 01:32:11;;;;;;;31.93;29.00;;;13.00;99.90;;;;;;5052182;28;20459;-70
2021/09/07 01:34:39;;;;;;;34.80;31.33;;;13.10;99.90;;;;;;5052043;28;20483;-71
2021/09/07 01:37:08;;;;;;;32.80;29.90;;;13.00;99.90;;;;;;5054863;28;20783;-70
2021/09/07 01:39:36;;;;;;;32.30;29.03;;;13.00;99.90;;;;;;5048680;28;20464;-71
2021/09/07 01:42:05;;;;;;;31.83;28.87;;;13.00;99.90;;;;;;5048949;28;20543;-70
2021/09/07 01:44:33;;;;;;;35.23;30.00;;;13.00;99.90;;;;;;5042576;28;20502;-70
2021/09/07 01:47:00;;;;;;;31.83;28.97;;;13.00;99.90;;;;;;5040885;28;20460;-70
2021/09/07 01:49:29;;;;;;;32.80;28.60;;;13.10;99.90;;;;;;5044229;28;20456;-71
2021/09/07 01:51:56;;;;;;;32.90;29.80;;;13.00;99.90;;;;;;5049268;28;20975;-71
2021/09/07 01:54:23;;;;;;;30.80;27.60;;;13.00;99.90;;;;;;5055997;28;20720;-70
2021/09/07 01:56:50;;;;;;;31.53;28.50;;;13.00;99.90;;;;;;5050910;28;20813;-71
2021/09/07 01:59:18;;;;;;;33.40;30.20;;;13.00;99.90;;;;;;5043934;28;20456;-70
2021/09/07 02:01:45;;;;;;;31.20;28.47;;;13.00;99.90;;;;;;5043636;28;20459;-70
2021/09/07 02:04:12;;;;;;;31.47;28.53;;;12.90;99.90;;;;;;5043741;28;20532;-71
2021/09/07 02:06:39;;;;;;;31.07;28.10;;;12.90;99.90;;;;;;5047399;28;20551;-70
2021/09/07 02:09:06;;;;;;;31.20;27.77;;;12.90;99.90;;;;;;5043819;28;20468;-70
2021/09/07 02:11:33;;;;;;;31.93;28.80;;;12.90;99.90;;;;;;5047581;28;20452;-71
2021/09/07 02:14:01;;;;;;;31.53;28.57;;;12.90;99.90;;;;;;5055311;28;20542;-71
2021/09/07 02:16:29;;;;;;;31.67;28.47;;;12.90;99.90;;;;;;5044701;28;20462;-70
2021/09/07 02:18:56;;;;;;;32.63;29.63;;;12.80;99.90;;;;;;5045165;28;20453;-70
2021/09/07 02:21:24;;;;;;;34.00;30.80;;;12.80;99.90;;;;;;5049286;28;20460;-70
2021/09/07 02:23:51;;;;;;;34.03;30.50;;;12.80;99.90;;;;;;5048738;28;20468;-71
2021/09/07 02:26:18;;;;;;;32.87;29.87;;;12.70;99.90;;;;;;5050000;28;20461;-71
2021/09/07 02:28:45;;;;;;;35.63;30.10;;;12.80;99.90;;;;;;5044335;28;20464;-70
2021/09/07 02:31:12;;;;;;;33.87;30.57;;;12.80;99.90;;;;;;5038161;28;20496;-71
2021/09/07 02:33:41;;;;;;;33.87;30.47;;;12.80;99.90;;;;;;5044634;28;20491;-70
2021/09/07 02:36:08;;;;;;;34.20;28.90;;;12.70;99.90;;;;;;5042899;28;20464;-70
2021/09/07 02:38:36;;;;;;;33.50;30.20;;;12.70;99.90;;;;;;5044412;28;20458;-70
2021/09/07 02:41:03;;;;;;;33.93;30.30;;;12.70;99.90;;;;;;5057457;28;20462;-70
2021/09/07 02:43:30;;;;;;;34.87;31.50;;;12.70;99.90;;;;;;5049102;28;20448;-71
2021/09/07 02:45:57;;;;;;;33.47;30.03;;;12.70;99.90;;;;;;5036027;28;20488;-70
2021/09/07 02:48:25;;;;;;;34.90;31.47;;;12.70;99.90;;;;;;5044244;28;20451;-71
2021/09/07 02:50:54;;;;;;;31.57;28.57;;;12.70;99.90;;;;;;5042526;28;20464;-70
2021/09/07 02:53:22;;;;;;;31.77;28.87;;;12.60;99.90;;;;;;5049977;28;21021;-70
2021/09/07 02:55:50;;;;;;;31.20;28.40;;;12.60;99.90;;;;;;5048511;28;20548;-71
2021/09/07 02:58:16;;;;;;;37.40;30.20;;;12.50;99.90;;;;;;5041399;28;20464;-70
2021/09/07 03:00:43;;;;;;;32.10;28.90;;;12.50;99.90;;;;;;5042393;28;20460;-71
2021/09/07 03:03:10;;;;;;;30.87;28.27;;;12.60;99.90;;;;;;5039390;28;20456;-71
2021/09/07 03:05:39;;;;;;;33.67;30.37;;;12.60;99.90;;;;;;5043743;28;20488;-70
2021/09/07 03:08:08;;;;;;;37.70;30.10;;;12.60;99.90;;;;;;5058865;28;20451;-70
2021/09/07 03:10:35;;;;;;;33.73;30.07;;;12.50;99.90;;;;;;5046324;28;20470;-71
2021/09/07 03:13:02;;;;;;;34.33;31.03;;;12.50;99.90;;;;;;5042671;28;20556;-71
2021/09/07 03:15:31;;;;;;;33.30;29.97;;;12.50;99.90;;;;;;5041149;28;20456;-70
2021/09/07 03:17:58;;;;;;;36.00;30.77;;;12.50;99.90;;;;;;5046561;28;20844;-70
2021/09/07 03:20:26;;;;;;;32.07;29.07;;;12.60;99.90;;;;;;5047495;28;20475;-71
2021/09/07 03:22:54;;;;;;;32.57;28.90;;;12.60;99.90;;;;;;5034563;28;20457;-69
2021/09/07 03:25:22;;;;;;;30.77;27.83;;;12.60;99.90;;;;;;5046669;28;20510;-70
2021/09/07 03:27:50;;;;;;;30.60;27.90;;;12.60;99.90;;;;;;5045324;28;20922;-70
2021/09/07 03:30:16;;;;;;;32.30;29.17;;;12.60;99.90;;;;;;5043671;28;20462;-70
2021/09/07 03:32:44;;;;;;;31.03;28.33;;;12.60;99.90;;;;;;5046885;28;20463;-70
2021/09/07 03:35:11;;;;;;;33.23;29.67;;;12.50;99.90;;;;;;5043583;28;20527;-70
2021/09/07 03:37:39;;;;;;;32.73;29.33;;;12.50;99.90;;;;;;5045701;28;20842;-70
2021/09/07 03:40:08;;;;;;;31.30;28.30;;;12.50;99.90;;;;;;5037897;28;20498;-70
2021/09/07 03:42:37;;;;;;;32.73;29.53;;;12.60;99.90;;;;;;5055566;28;20451;-70
2021/09/07 03:45:05;;;;;;;30.87;28.17;;;12.60;99.90;;;;;;5049221;28;20485;-70
2021/09/07 03:47:32;;;;;;;30.40;27.57;;;12.60;99.90;;;;;;5037702;28;20456;-70
2021/09/07 03:50:00;;;;;;;31.40;28.20;;;12.70;99.90;;;;;;5034829;28;20453;-70
2021/09/07 03:52:27;;;;;;;31.60;28.33;;;12.80;99.90;;;;;;5047943;28;20648;-71
2021/09/07 03:54:56;;;;;;;45.97;30.63;;;12.80;99.90;;;;;;5046285;28;20882;-71
2021/09/07 03:57:23;;;;;;;33.53;29.43;;;12.90;99.90;;;;;;5044041;28;20838;-70
2021/09/07 03:59:52;;;;;;;30.77;27.77;;;13.00;99.90;;;;;;5044210;28;20471;-71
2021/09/07 04:02:20;;;;;;;32.53;29.37;;;13.10;99.90;;;;;;5038498;28;20447;-70
2021/09/07 04:04:47;;;;;;;32.57;29.57;;;13.20;99.90;;;;;;5038705;28;20480;-71
2021/09/07 04:07:14;;;;;;;31.03;28.17;;;13.20;99.90;;;;;;5035853;28;20479;-70
2021/09/07 04:09:41;;;;;;;31.97;28.80;;;13.20;99.90;;;;;;5043720;28;20541;-71
2021/09/07 04:12:08;;;;;;;29.97;27.07;;;13.20;99.90;;;;;;5040409;28;20452;-70
2021/09/07 04:14:35;;;;;;;32.27;29.03;;;13.20;99.90;;;;;;5038252;28;20559;-70
2021/09/07 04:17:04;;;;;;;29.90;26.97;;;13.30;99.90;;;;;;5040422;28;20471;-71
2021/09/07 04:19:32;;;;;;;32.53;29.00;;;13.40;99.90;;;;;;5043729;28;20452;-70
2021/09/07 04:21:59;;;;;;;32.00;28.90;;;13.40;99.90;;;;;;5056852;28;20458;-70
2021/09/07 04:24:26;;;;;;;32.77;29.57;;;13.40;99.90;;;;;;5051786;28;21012;-71
2021/09/07 04:26:54;;;;;;;35.87;31.00;;;13.30;99.90;;;;;;5037182;28;20467;-71
2021/09/07 04:29:22;;;;;;;32.93;29.83;;;13.30;99.90;;;;;;5036497;28;21029;-71
2021/09/07 04:31:48;;;;;;;33.33;29.97;;;13.30;99.90;;;;;;5043721;28;20778;-69
2021/09/07 04:34:17;;;;;;;32.33;29.13;;;13.40;99.90;;;;;;5039758;28;20855;-71
2021/09/07 04:36:45;;;;;;;32.77;29.40;;;13.40;99.90;;;;;;5050347;28;20447;-71
2021/09/07 04:39:12;;;;;;;33.93;30.43;;;13.50;99.90;;;;;;5047501;28;20503;-70
2021/09/07 04:41:40;;;;;;;32.83;29.47;;;13.50;99.90;;;;;;5050904;28;20451;-71
2021/09/07 04:44:07;;;;;;;32.53;29.33;;;13.60;99.90;;;;;;5050065;28;20459;-70
2021/09/07 04:46:34;;;;;;;33.60;29.97;;;13.60;99.90;;;;;;5040322;28;21152;-70
2021/09/07 04:49:01;;;;;;;32.60;29.07;;;13.70;99.90;;;;;;5042965;28;20749;-71
2021/09/07 04:51:29;;;;;;;34.37;30.60;;;13.70;99.90;;;;;;5044005;28;20635;-70
2021/09/07 04:53:58;;;;;;;32.90;29.47;;;13.80;99.90;;;;;;5051020;28;20465;-70
2021/09/07 04:56:25;;;;;;;31.90;28.57;;;13.70;99.90;;;;;;5048104;28;20982;-71
2021/09/07 04:58:53;;;;;;;33.30;29.80;;;13.90;99.90;;;;;;5046204;28;20459;-70
2021/09/07 05:01:20;;;;;;;33.50;29.90;;;13.90;99.90;;;;;;5051723;28;20466;-71
2021/09/07 05:03:47;;;;;;;33.30;30.00;;;13.80;99.90;;;;;;5048261;28;20484;-71
2021/09/07 05:06:15;;;;;;;33.97;30.17;;;13.60;99.90;;;;;;5049483;28;20482;-70
2021/09/07 05:08:43;;;;;;;34.00;30.03;;;13.70;99.90;;;;;;5042399;28;20459;-71
2021/09/07 05:11:10;;;;;;;34.97;31.57;;;13.70;99.90;;;;;;5044658;28;20467;-71
2021/09/07 05:13:39;;;;;;;32.37;29.37;;;13.80;99.90;;;;;;5042888;28;20464;-71
2021/09/07 05:16:07;;;;;;;33.90;30.60;;;13.90;99.90;;;;;;5050683;28;20456;-71
2021/09/07 05:18:34;;;;;;;36.23;31.10;;;14.00;99.90;;;;;;5055026;28;20952;-70
2021/09/07 05:21:01;;;;;;;34.50;30.90;;;14.10;99.90;;;;;;5040555;28;20456;-71
2021/09/07 05:23:29;;;;;;;38.67;32.57;;;14.20;99.90;;;;;;5046769;28;20469;-72
2021/09/07 05:25:57;;;;;;;35.07;30.87;;;14.30;99.90;;;;;;5046112;28;20480;-72
2021/09/07 05:28:24;;;;;;;40.53;32.13;;;14.40;99.90;;;;;;5047790;28;20464;-70
2021/09/07 05:30:52;;;;;;;39.10;32.20;;;14.30;99.90;;;;;;5046827;28;20463;-70
2021/09/07 05:33:19;;;;;;;41.43;33.20;;;14.30;99.90;;;;;;5043091;28;20506;-71
2021/09/07 05:35:46;;;;;;;37.23;33.00;;;14.30;99.90;;;;;;5039098;28;20479;-71
2021/09/07 05:38:13;;;;;;;38.17;31.53;;;14.40;99.90;;;;;;5037889;28;20958;-71
2021/09/07 05:40:41;;;;;;;36.20;32.50;;;14.40;99.90;;;;;;5040522;28;20472;-70
2021/09/07 05:43:10;;;;;;;35.63;31.43;;;14.50;99.90;;;;;;5044258;28;20471;-72
2021/09/07 05:45:37;;;;;;;35.33;31.63;;;14.60;99.90;;;;;;5037415;28;20487;-70
2021/09/07 05:48:05;;;;;;;38.20;30.77;;;14.70;99.90;;;;;;5041892;28;20456;-71
2021/09/07 05:50:32;;;;;;;37.17;31.53;;;14.80;99.90;;;;;;5045044;28;20483;-71
2021/09/07 05:52:59;;;;;;;34.17;30.97;;;14.90;99.90;;;;;;5042759;28;20459;-70
2021/09/07 05:55:26;;;;;;;34.37;30.90;;;15.10;99.90;;;;;;5038115;28;20477;-70
2021/09/07 05:57:55;;;;;;;34.00;29.67;;;15.10;99.90;;;;;;5040198;28;20463;-71
2021/09/07 06:00:25;;;;;;;34.47;31.00;;;15.10;99.90;;;;;;5041770;28;20466;-71
2021/09/07 06:02:56;;;;;;;35.83;32.00;;;15.40;99.90;;;;;;5038664;28;20468;-71
2021/09/07 06:05:26;;;;;;;39.10;31.63;;;15.60;99.90;;;;;;5040654;28;20589;-71
2021/09/07 06:07:53;;;;;;;37.60;31.13;;;15.70;99.90;;;;;;5045557;28;20533;-71
2021/09/07 06:10:21;;;;;;;32.87;29.43;;;15.90;99.90;;;;;;5044864;28;20483;-71
2021/09/07 06:12:48;;;;;;;34.50;30.80;;;16.10;99.90;;;;;;5048019;28;20460;-71
2021/09/07 06:15:15;;;;;;;36.23;32.40;;;16.30;99.90;;;;;;5037521;28;20455;-71
2021/09/07 06:17:44;;;;;;;34.07;30.63;;;16.50;99.90;;;;;;5041961;28;20460;-71
2021/09/07 06:20:12;;;;;;;35.53;29.77;;;16.70;99.90;;;;;;5043696;28;20461;-72
2021/09/07 06:22:39;;;;;;;36.90;28.93;;;16.90;99.90;;;;;;5044032;28;20461;-71
2021/09/07 06:25:07;;;;;;;38.47;28.40;;;17.10;99.90;;;;;;5041307;28;20465;-71
2021/09/07 06:27:34;;;;;;;48.70;30.70;;;17.20;99.90;;;;;;5041709;28;20455;-70
2021/09/07 06:30:01;;;;;;;33.07;29.37;;;17.40;99.90;;;;;;5044191;28;20808;-71
2021/09/07 06:32:29;;;;;;;46.27;32.73;;;17.50;99.90;;;;;;5045125;28;20472;-71
2021/09/07 06:34:58;;;;;;;59.10;33.23;;;17.50;99.90;;;;;;5036593;28;20490;-71
2021/09/07 06:37:26;;;;;;;54.77;31.63;;;17.50;99.90;;;;;;5044429;28;20456;-72
2021/09/07 06:39:53;;;;;;;63.50;32.77;;;17.70;99.90;;;;;;5046113;28;20459;-72
2021/09/07 06:42:20;;;;;;;55.77;31.37;;;17.70;99.90;;;;;;5042969;28;20461;-72
2021/09/07 06:44:47;;;;;;;45.33;31.07;;;17.80;99.90;;;;;;5044848;28;20464;-71
2021/09/07 06:47:15;;;;;;;76.60;33.07;;;18.00;99.90;;;;;;5049227;28;20483;-72
2021/09/07 06:49:42;;;;;;;66.23;32.40;;;18.20;99.90;;;;;;5040228;28;20463;-72
2021/09/07 06:52:11;;;;;;;73.00;33.27;;;18.40;99.90;;;;;;5042242;28;20458;-71
2021/09/07 06:54:39;;;;;;;60.00;32.90;;;18.40;99.90;;;;;;5037885;28;20461;-71
2021/09/07 06:57:06;;;;;;;59.93;33.23;;;18.50;99.90;;;;;;5045721;28;20456;-72
2021/09/07 06:59:33;;;;;;;57.10;31.90;;;18.60;99.90;;;;;;5039371;28;20471;-71
2021/09/07 07:02:00;;;;;;;66.47;31.43;;;18.70;99.90;;;;;;5043840;28;20547;-71
2021/09/07 07:04:27;;;;;;;71.03;32.20;;;18.70;99.90;;;;;;5044366;28;21016;-71
2021/09/07 07:06:54;;;;;;;63.17;31.63;;;18.60;99.90;;;;;;5041532;28;20484;-71
2021/09/07 07:09:24;;;;;;;60.33;31.00;;;18.70;99.90;;;;;;5038382;28;20489;-71
2021/09/07 07:11:51;;;;;;;69.37;30.83;;;18.80;99.90;;;;;;5036699;28;20940;-71
2021/09/07 07:14:21;;;;;;;68.37;32.47;;;19.00;99.90;;;;;;5035404;28;20460;-70
2021/09/07 07:16:48;;;;;;;72.40;33.40;;;19.10;99.90;;;;;;5039666;28;20951;-71
2021/09/07 07:19:16;;;;;;;90.73;32.90;;;19.20;99.90;;;;;;5042283;28;20950;-70
2021/09/07 07:21:43;;;;;;;78.87;30.90;;;19.10;99.90;;;;;;5038993;28;20486;-71
2021/09/07 07:24:10;;;;;;;64.87;32.17;;;19.30;99.90;;;;;;5041059;28;20980;-71
2021/09/07 07:26:39;;;;;;;57.27;30.50;;;19.70;99.90;;;;;;5042994;28;20496;-73
2021/09/07 07:29:07;;;;;;;66.63;30.53;;;20.00;99.90;;;;;;5039525;28;20459;-70
2021/09/07 07:31:34;;;;;;;52.67;29.50;;;20.20;99.90;;;;;;5043273;28;20871;-71
2021/09/07 07:34:01;;;;;;;64.43;30.97;;;20.50;99.90;;;;;;5047635;28;20486;-71
2021/09/07 07:36:28;;;;;;;47.60;29.23;;;20.50;99.90;;;;;;5043002;28;20935;-70
2021/09/07 07:38:55;;;;;;;60.07;31.00;;;20.60;99.90;;;;;;5038456;28;20476;-71
2021/09/07 07:41:23;;;;;;;66.10;32.47;;;20.60;99.90;;;;;;5045406;28;21204;-71
2021/09/07 07:43:51;;;;;;;68.10;32.20;;;20.80;99.90;;;;;;5038818;28;20943;-72
2021/09/07 07:46:18;;;;;;;73.03;31.93;;;20.90;99.90;;;;;;5040691;28;20488;-71
2021/09/07 07:48:45;;;;;;;61.77;32.33;;;20.90;99.90;;;;;;5047817;28;20553;-71
2021/09/07 07:51:14;;;;;;;58.50;31.70;;;21.00;99.90;;;;;;5047164;28;20463;-70
2021/09/07 07:53:41;;;;;;;59.03;32.30;;;20.90;99.90;;;;;;5045761;28;20455;-71
2021/09/07 07:56:08;;;;;;;67.23;32.37;;;20.80;99.90;;;;;;5032582;28;20576;-72
2021/09/07 07:58:35;;;;;;;62.70;32.30;;;20.90;99.90;;;;;;5038040;28;20539;-71
2021/09/07 08:01:04;;;;;;;54.60;33.07;;;21.00;99.90;;;;;;5030549;28;20459;-73
2021/09/07 08:03:31;;;;;;;47.20;33.93;;;21.00;99.90;;;;;;5044109;28;20491;-70
2021/09/07 08:05:59;;;;;;;48.90;34.67;;;20.90;99.90;;;;;;5036045;28;20484;-69
2021/09/07 08:08:26;;;;;;;61.73;36.97;;;20.90;99.90;;;;;;5036240;28;20542;-71
2021/09/07 08:10:52;;;;;;;58.00;35.27;;;21.00;99.90;;;;;;5039549;28;20459;-70
2021/09/07 08:13:20;;;;;;;62.07;36.97;;;21.00;99.90;;;;;;5040135;28;20470;-73
2021/09/07 08:15:46;;;;;;;48.63;33.27;;;21.10;99.90;;;;;;5036583;28;20452;-71
2021/09/07 08:18:14;;;;;;;42.90;33.77;;;21.20;99.90;;;;;;5039292;28;20462;-70
2021/09/07 08:20:43;;;;;;;59.77;35.53;;;21.20;99.90;;;;;;5044106;28;20466;-71
2021/09/07 08:23:10;;;;;;;63.70;35.17;;;21.30;99.90;;;;;;5034861;28;20471;-71
2021/09/07 08:25:37;;;;;;;55.30;33.73;;;21.20;99.90;;;;;;5039139;28;20463;-70
2021/09/07 08:28:04;;;;;;;42.60;31.50;;;21.40;99.90;;;;;;5040356;28;20463;-72
2021/09/07 08:30:31;;;;;;;40.90;31.10;;;21.70;99.90;;;;;;5039876;28;20452;-71
2021/09/07 08:32:58;;;;;;;53.33;34.50;;;21.90;99.90;;;;;;5039162;28;20463;-70
2021/09/07 08:35:26;;;;;;;41.27;32.57;;;21.90;99.90;;;;;;5037441;28;21685;-72
2021/09/07 08:37:53;;;;;;;48.30;32.27;;;22.00;99.90;;;;;;5036842;28;20464;-71
2021/09/07 08:40:20;;;;;;;55.23;31.03;;;22.10;99.90;;;;;;5037016;28;20459;-71
2021/09/07 08:42:47;;;;;;;61.87;30.27;;;22.20;99.90;;;;;;5034141;28;20476;-71
2021/09/07 08:45:15;;;;;;;50.90;30.40;;;22.20;99.90;;;;;;5042463;28;20599;-71
2021/09/07 08:47:44;;;;;;;53.33;30.80;;;22.30;99.90;;;;;;5043760;28;20874;-71
2021/09/07 08:50:13;;;;;;;49.43;32.70;;;22.20;99.90;;;;;;5047980;28;20461;-72
2021/09/07 08:52:42;;;;;;;51.23;32.27;;;22.30;99.90;;;;;;5045575;28;20460;-71
2021/09/07 08:55:10;;;;;;;49.13;30.10;;;22.50;99.90;;;;;;5047189;28;20459;-71
2021/09/07 08:57:37;;;;;;;48.00;28.93;;;22.70;99.90;;;;;;5041721;28;20452;-75
2021/09/07 09:00:07;;;;;;;42.80;30.63;;;22.90;99.90;;;;;;5038532;28;20448;-72
2021/09/07 09:02:41;;;;;;;39.90;31.33;;;23.20;99.90;;;;;;5035158;28;20464;-73
2021/09/07 09:05:09;;;;;;;45.70;30.63;;;23.30;99.90;;;;;;5042353;28;20486;-71
2021/09/07 09:07:36;;;;;;;49.30;32.60;;;23.40;99.90;;;;;;5047385;28;21442;-71
2021/09/07 09:10:05;;;;;;;45.67;31.27;;;23.60;99.90;;;;;;5051252;28;20454;-72
2021/09/07 09:12:34;;;;;;;45.40;28.30;;;23.70;99.90;;;;;;5047280;28;20465;-72
2021/09/07 09:15:02;;;;;;;51.20;30.30;;;24.00;99.90;;;;;;5039514;28;20460;-72
2021/09/07 09:17:31;;;;;;;59.10;28.40;;;24.70;99.90;;;;;;5049997;28;20464;-72
2021/09/07 09:20:00;;;;;;;70.47;32.10;;;25.40;99.90;;;;;;5042234;28;20456;-73
2021/09/07 09:22:48;;;;;;;47.93;28.97;;;25.90;99.90;;;;;;5033233;28;20455;-73
2021/09/07 09:25:41;;;;;;;50.27;28.50;;;26.40;99.90;;;;;;5043945;28;20474;-71
2021/09/07 09:28:14;;;;;;;41.47;28.23;;;26.50;99.90;;;;;;5029133;28;20985;-73
2021/09/07 09:30:42;;;;;;;41.97;28.57;;;27.00;99.90;;;;;;5045774;28;20467;-75
2021/09/07 09:33:12;;;;;;;37.37;27.60;;;27.80;99.90;;;;;;5036454;28;20476;-72
2021/09/07 09:35:48;;;;;;;32.17;28.57;;;28.30;99.90;;;;;;5040535;28;20457;-72
2021/09/07 09:38:15;;;;;;;36.40;29.00;;;29.10;99.90;;;;;;5045761;28;20482;-74
2021/09/07 09:40:44;;;;;;;47.77;29.30;;;29.10;99.90;;;;;;5036041;28;20545;-73
2021/09/07 09:43:25;;;;;;;43.37;28.97;;;29.20;99.90;;;;;;5037867;28;20551;-72
2021/09/07 09:45:52;;;;;;;40.93;29.60;;;29.90;99.90;;;;;;5035112;28;20456;-72
2021/09/07 09:48:28;;;;;;;41.23;28.83;;;30.20;99.90;;;;;;5041546;28;20491;-71
2021/09/07 09:50:57;;;;;;;35.47;31.43;;;30.20;99.90;;;;;;5043294;28;20464;-74
2021/09/07 09:53:25;;;;;;;34.07;30.67;;;30.40;99.90;;;;;;5044354;28;21053;-74
2021/09/07 09:55:55;;;;;;;35.47;30.97;;;29.60;99.90;;;;;;5052115;28;20464;-70
2021/09/07 09:58:23;;;;;;;37.33;31.00;;;29.70;99.90;;;;;;5041605;28;21001;-74
2021/09/07 10:00:51;;;;;;;36.57;31.30;;;30.30;99.60;;;;;;5040417;28;20474;-71
2021/09/07 10:03:18;;;;;;;37.03;31.57;;;30.40;99.10;;;;;;5037833;28;20456;-71
2021/09/07 10:05:47;;;;;;;35.23;30.57;;;30.10;98.40;;;;;;5042057;28;20564;-73
2021/09/07 10:08:15;;;;;;;30.43;27.73;;;30.60;98.00;;;;;;5041970;28;20484;-70
2021/09/07 10:10:50;;;;;;;33.73;30.43;;;31.30;95.50;;;;;;5041365;28;20522;-71
2021/09/07 10:13:19;;;;;;;31.93;28.30;;;31.10;94.40;;;;;;5038365;28;20459;-71
2021/09/07 10:15:51;;;;;;;32.00;28.73;;;30.60;94.60;;;;;;5034226;28;21266;-71
2021/09/07 10:18:34;;;;;;;40.80;28.70;;;30.00;95.50;;;;;;5048727;28;20543;-71
2021/09/07 10:21:08;;;;;;;38.53;31.33;;;30.80;94.70;;;;;;5044048;28;20459;-71
2021/09/07 10:23:55;;;;;;;42.80;28.60;;;30.50;93.40;;;;;;5032464;28;20484;-71
2021/09/07 10:26:53;;;;;;;33.80;27.23;;;31.00;93.40;;;;;;5040072;28;20464;-70
2021/09/07 10:29:42;;;;;;;28.77;25.97;;;30.60;93.90;;;;;;5043227;28;20447;-72
2021/09/07 10:32:30;;;;;;;29.73;27.10;;;31.10;92.00;;;;;;5033172;28;20459;-74
2021/09/07 10:35:18;;;;;;;30.20;27.03;;;31.50;91.10;;;;;;5038314;28;20524;-71
2021/09/07 10:38:08;;;;;;;29.70;27.23;;;31.80;90.20;;;;;;5044721;28;20487;-74
2021/09/07 10:40:49;;;;;;;39.87;27.77;;;32.40;88.00;;;;;;5038556;28;20951;-72
2021/09/07 10:44:02;;;;;;;35.13;25.97;;;32.00;89.70;;;;;;5039830;28;20811;-71
2021/09/07 10:46:50;;;;;;;27.70;25.07;;;32.10;87.20;;;;;;5008174;28;20870;-71
2021/09/07 10:49:20;;;;;;;27.50;25.20;;;32.90;81.80;;;;;;5031068;28;20452;-71
2021/09/07 10:52:17;;;;;;;24.97;22.90;;;33.40;79.20;;;;;;5035810;28;20463;-71
2021/09/07 10:54:50;;;;;;;26.00;23.80;;;33.50;75.00;;;;;;5034481;28;20870;-71
2021/09/07 10:57:51;;;;;;;27.07;22.90;;;33.60;76.40;;;;;;5040493;28;20460;-71
2021/09/07 11:00:35;;;;;;;28.40;24.53;;;33.50;74.20;;;;;;5038655;28;20452;-71
2021/09/07 11:03:11;;;;;;;26.27;23.83;;;34.10;70.80;;;;;;5039805;28;21486;-71
2021/09/07 11:05:44;;;;;;;25.13;23.13;;;34.80;70.70;;;;;;5036293;28;20466;-74
2021/09/07 11:08:12;;;;;;;26.67;24.10;;;35.10;66.50;;;;;;5040592;28;21006;-71
2021/09/07 11:10:41;;;;;;;26.43;24.30;;;35.20;64.30;;;;;;5044401;28;20460;-71
2021/09/07 11:13:12;;;;;;;27.17;25.00;;;35.40;63.90;;;;;;5033579;28;20578;-74
2021/09/07 11:15:41;;;;;;;24.67;22.83;;;35.80;59.70;;;;;;5039477;28;20456;-71
2021/09/07 11:18:13;;;;;;;25.67;23.27;;;35.50;60.90;;;;;;5038158;28;20940;-70
2021/09/07 11:20:42;;;;;;;23.40;21.90;;;34.50;62.30;;;;;;5027447;28;20955;-74
2021/09/07 11:23:11;;;;;;;24.10;22.40;;;34.90;61.50;;;;;;5034851;28;20479;-75
2021/09/07 11:25:39;;;;;;;26.20;24.10;;;34.90;61.20;;;;;;5034662;28;20815;-71
2021/09/07 11:28:10;;;;;;;26.37;24.37;;;35.40;59.00;;;;;;5036398;28;21005;-71
2021/09/07 11:30:38;;;;;;;24.17;22.30;;;35.40;57.80;;;;;;5036233;28;20464;-70
2021/09/07 11:33:07;;;;;;;23.90;22.03;;;34.50;58.50;;;;;;5034847;28;20515;-73
2021/09/07 11:35:38;;;;;;;23.80;21.87;;;34.90;59.90;;;;;;5043387;28;20475;-71
2021/09/07 11:38:07;;;;;;;24.30;22.20;;;35.20;59.50;;;;;;5039679;28;20456;-72
2021/09/07 11:40:37;;;;;;;22.80;21.00;;;35.30;57.90;;;;;;5032963;28;20463;-71
2021/09/07 11:43:03;;;;;;;23.67;21.77;;;35.30;57.50;;;;;;5033710;28;20460;-71
2021/09/07 11:45:33;;;;;;;24.30;22.20;;;35.60;56.70;;;;;;5036176;28;20469;-71
2021/09/07 11:48:01;;;;;;;23.70;21.80;;;35.10;54.70;;;;;;5036952;28;20866;-71
2021/09/07 11:50:30;;;;;;;22.40;20.53;;;35.80;55.20;;;;;;5036053;28;20863;-71
2021/09/07 11:53:00;;;;;;;22.70;21.17;;;35.60;57.10;;;;;;5037102;28;20460;-71
2021/09/07 11:55:55;;;;;;;23.80;21.77;;;36.40;53.30;;;;;;5034396;28;20460;-71
2021/09/07 11:58:24;;;;;;;21.73;20.33;;;34.80;54.40;;;;;;4997627;28;20507;-71
2021/09/07 12:01:13;;;;;;;21.60;20.00;;;34.70;55.30;;;;;;5037107;28;20840;-70
2021/09/07 12:03:46;;;;;;;20.63;19.20;;;34.70;54.30;;;;;;5038929;28;20496;-70
2021/09/07 12:06:15;;;;;;;22.63;21.10;;;34.50;55.20;;;;;;5033421;28;20468;-71
2021/09/07 12:08:46;;;;;;;22.10;20.60;;;35.20;54.10;;;;;;5030815;28;20761;-75
2021/09/07 12:11:15;;;;;;;22.17;20.70;;;35.20;55.50;;;;;;5036894;28;20985;-70
2021/09/07 12:13:42;;;;;;;22.83;21.17;;;35.30;55.20;;;;;;5034542;28;20468;-71
2021/09/07 12:16:09;;;;;;;26.03;23.90;;;35.80;55.10;;;;;;5037403;28;20494;-71
2021/09/07 12:18:43;;;;;;;23.43;21.73;;;36.50;53.50;;;;;;5037583;28;20914;-71
2021/09/07 12:21:32;;;;;;;22.20;20.50;;;36.60;53.40;;;;;;5043119;28;20517;-73
2021/09/07 12:24:00;;;;;;;24.37;22.53;;;36.90;52.80;;;;;;5034144;28;20503;-71
2021/09/07 12:26:38;;;;;;;23.83;22.10;;;37.40;50.00;;;;;;5033405;28;20491;-73
2021/09/07 12:29:16;;;;;;;24.40;22.80;;;36.20;49.80;;;;;;5035764;28;20497;-71
2021/09/07 12:31:44;;;;;;;23.63;22.07;;;36.80;50.30;;;;;;5037524;28;20459;-70
2021/09/07 12:34:11;;;;;;;24.67;22.73;;;36.50;51.20;;;;;;5037521;28;20483;-71
2021/09/07 12:36:46;;;;;;;22.87;21.37;;;36.50;51.50;;;;;;5038220;28;20461;-71
2021/09/07 12:39:15;;;;;;;23.23;21.47;;;36.50;51.10;;;;;;5030246;28;20517;-71